<?xml version="1.0" encoding="utf-8"?>
<gpx xmlns:xsi="http://www.w3.org/2001/XMLSchema-instance" xmlns:xsd="http://www.w3.org/2001/XMLSchema" version="1.1" creator="Shapelink.com" xmlns="http://www.topografix.com/GPX/1/1" xmlns:gpxtpx="http://www.garmin.com/xmlschemas/TrackPointExtension/v1">
  <metadata>
    <name>Skidåkning 10.37 km, 2013-02-09</name>
    <desc></desc>
    <author><name>Ulf Andrae</name></author> 
    <time>2013-02-09T06:50:51Z</time>
  </metadata>
  <trk>
    <name>Skidåkning 10.37 km, 2013-02-09</name>
    <trkseg>
      <trkpt lat="58.661659956" lon="16.005922202">
        <ele>79.45</ele>
        <time>2013-02-09T06:50:51Z</time>
      </trkpt>
      <trkpt lat="58.6616610456" lon="16.0058812983">
        <ele>80.89</ele>
        <time>2013-02-09T06:50:54Z</time>
      </trkpt>
      <trkpt lat="58.6616980098" lon="16.0058455914">
        <ele>79.93</ele>
        <time>2013-02-09T06:51:06Z</time>
      </trkpt>
      <trkpt lat="58.6618646421" lon="16.0061081126">
        <ele>79.93</ele>
        <time>2013-02-09T06:51:19Z</time>
      </trkpt>
      <trkpt lat="58.6618622113" lon="16.0062494315">
        <ele>79.93</ele>
        <time>2013-02-09T06:51:24Z</time>
      </trkpt>
      <trkpt lat="58.6617690884" lon="16.0067223385">
        <ele>79.93</ele>
        <time>2013-02-09T06:51:41Z</time>
      </trkpt>
      <trkpt lat="58.6616680864" lon="16.0072063934">
        <ele>79.45</ele>
        <time>2013-02-09T06:51:59Z</time>
      </trkpt>
      <trkpt lat="58.6615555175" lon="16.0077064577">
        <ele>79.93</ele>
        <time>2013-02-09T06:52:17Z</time>
      </trkpt>
      <trkpt lat="58.6614537612" lon="16.0081328452">
        <ele>79.93</ele>
        <time>2013-02-09T06:52:34Z</time>
      </trkpt>
      <trkpt lat="58.6613266915" lon="16.0086091049">
        <ele>80.89</ele>
        <time>2013-02-09T06:52:52Z</time>
      </trkpt>
      <trkpt lat="58.6612018012" lon="16.009039348">
        <ele>80.89</ele>
        <time>2013-02-09T06:53:10Z</time>
      </trkpt>
      <trkpt lat="58.6611311417" lon="16.0092292819">
        <ele>81.37</ele>
        <time>2013-02-09T06:53:17Z</time>
      </trkpt>
      <trkpt lat="58.66110323" lon="16.0093394201">
        <ele>81.85</ele>
        <time>2013-02-09T06:53:21Z</time>
      </trkpt>
      <trkpt lat="58.6611152999" lon="16.0094171204">
        <ele>77.52</ele>
        <time>2013-02-09T06:53:31Z</time>
      </trkpt>
      <trkpt lat="58.6611140426" lon="16.0094058886">
        <ele>79.45</ele>
        <time>2013-02-09T06:53:32Z</time>
      </trkpt>
      <trkpt lat="58.6611046549" lon="16.0094061401">
        <ele>81.85</ele>
        <time>2013-02-09T06:53:34Z</time>
      </trkpt>
      <trkpt lat="58.6611020565" lon="16.0094044637">
        <ele>82.81</ele>
        <time>2013-02-09T06:53:38Z</time>
      </trkpt>
      <trkpt lat="58.661105996" lon="16.0094093252">
        <ele>79.45</ele>
        <time>2013-02-09T06:53:40Z</time>
      </trkpt>
      <trkpt lat="58.6611063313" lon="16.0094122589">
        <ele>82.81</ele>
        <time>2013-02-09T06:53:42Z</time>
      </trkpt>
      <trkpt lat="58.6611079238" lon="16.0094130132">
        <ele>82.33</ele>
        <time>2013-02-09T06:53:43Z</time>
      </trkpt>
      <trkpt lat="58.6611071695" lon="16.0094090737">
        <ele>76.08</ele>
        <time>2013-02-09T06:53:44Z</time>
      </trkpt>
      <trkpt lat="58.6611070856" lon="16.0094047152">
        <ele>82.33</ele>
        <time>2013-02-09T06:53:45Z</time>
      </trkpt>
      <trkpt lat="58.6611022241" lon="16.0094032064">
        <ele>81.85</ele>
        <time>2013-02-09T06:53:49Z</time>
      </trkpt>
      <trkpt lat="58.6610973626" lon="16.009403374">
        <ele>86.66</ele>
        <time>2013-02-09T06:53:51Z</time>
      </trkpt>
      <trkpt lat="58.6610968597" lon="16.0094045475">
        <ele>82.33</ele>
        <time>2013-02-09T06:53:52Z</time>
      </trkpt>
      <trkpt lat="58.6611039843" lon="16.0094098281">
        <ele>80.89</ele>
        <time>2013-02-09T06:53:54Z</time>
      </trkpt>
      <trkpt lat="58.6611512583" lon="16.0095291026">
        <ele>81.37</ele>
        <time>2013-02-09T06:53:59Z</time>
      </trkpt>
      <trkpt lat="58.6613164656" lon="16.0098936316">
        <ele>80.89</ele>
        <time>2013-02-09T06:54:14Z</time>
      </trkpt>
      <trkpt lat="58.6614866182" lon="16.0103767645">
        <ele>80.89</ele>
        <time>2013-02-09T06:54:31Z</time>
      </trkpt>
      <trkpt lat="58.6616266798" lon="16.0108570475">
        <ele>81.37</ele>
        <time>2013-02-09T06:54:49Z</time>
      </trkpt>
      <trkpt lat="58.6617747881" lon="16.0112703592">
        <ele>82.33</ele>
        <time>2013-02-09T06:55:06Z</time>
      </trkpt>
      <trkpt lat="58.6619378999" lon="16.0117350519">
        <ele>85.21</ele>
        <time>2013-02-09T06:55:28Z</time>
      </trkpt>
      <trkpt lat="58.6618506443" lon="16.0120051168">
        <ele>87.14</ele>
        <time>2013-02-09T06:55:42Z</time>
      </trkpt>
      <trkpt lat="58.6616768036" lon="16.0122552328">
        <ele>89.06</ele>
        <time>2013-02-09T06:56:00Z</time>
      </trkpt>
      <trkpt lat="58.66157379" lon="16.0123910196">
        <ele>91.46</ele>
        <time>2013-02-09T06:56:15Z</time>
      </trkpt>
      <trkpt lat="58.6613711994" lon="16.012632167">
        <ele>93.87</ele>
        <time>2013-02-09T06:56:33Z</time>
      </trkpt>
      <trkpt lat="58.6613171361" lon="16.0127423052">
        <ele>94.35</ele>
        <time>2013-02-09T06:56:39Z</time>
      </trkpt>
      <trkpt lat="58.6613405216" lon="16.013027709">
        <ele>97.23</ele>
        <time>2013-02-09T06:56:56Z</time>
      </trkpt>
      <trkpt lat="58.6613427848" lon="16.0130503401">
        <ele>97.71</ele>
        <time>2013-02-09T06:56:57Z</time>
      </trkpt>
      <trkpt lat="58.6612780765" lon="16.01347371">
        <ele>100.6</ele>
        <time>2013-02-09T06:57:17Z</time>
      </trkpt>
      <trkpt lat="58.6611982808" lon="16.013945695">
        <ele>102.04</ele>
        <time>2013-02-09T06:57:38Z</time>
      </trkpt>
      <trkpt lat="58.6610812694" lon="16.0144004133">
        <ele>101.08</ele>
        <time>2013-02-09T06:57:56Z</time>
      </trkpt>
      <trkpt lat="58.6609697901" lon="16.0148379486">
        <ele>102.04</ele>
        <time>2013-02-09T06:58:13Z</time>
      </trkpt>
      <trkpt lat="58.6608606577" lon="16.0152215883">
        <ele>104.92</ele>
        <time>2013-02-09T06:58:29Z</time>
      </trkpt>
      <trkpt lat="58.660811875" lon="16.0154071636">
        <ele>105.4</ele>
        <time>2013-02-09T06:58:37Z</time>
      </trkpt>
      <trkpt lat="58.6608539522" lon="16.0155259352">
        <ele>104.92</ele>
        <time>2013-02-09T06:58:43Z</time>
      </trkpt>
      <trkpt lat="58.6609800998" lon="16.0156947467">
        <ele>106.84</ele>
        <time>2013-02-09T06:58:59Z</time>
      </trkpt>
      <trkpt lat="58.6611616518" lon="16.015884513">
        <ele>107.32</ele>
        <time>2013-02-09T06:59:18Z</time>
      </trkpt>
      <trkpt lat="58.6612111889" lon="16.0159995966">
        <ele>106.84</ele>
        <time>2013-02-09T06:59:24Z</time>
      </trkpt>
      <trkpt lat="58.6612489913" lon="16.0161772091">
        <ele>108.29</ele>
        <time>2013-02-09T06:59:33Z</time>
      </trkpt>
      <trkpt lat="58.6611776613" lon="16.0166078713">
        <ele>109.25</ele>
        <time>2013-02-09T06:59:50Z</time>
      </trkpt>
      <trkpt lat="58.6611905694" lon="16.0170247033">
        <ele>109.73</ele>
        <time>2013-02-09T07:00:07Z</time>
      </trkpt>
      <trkpt lat="58.6613242608" lon="16.0173964407">
        <ele>111.17</ele>
        <time>2013-02-09T07:00:25Z</time>
      </trkpt>
      <trkpt lat="58.6615068186" lon="16.018012343">
        <ele>110.69</ele>
        <time>2013-02-09T07:00:46Z</time>
      </trkpt>
      <trkpt lat="58.661621483" lon="16.0185357928">
        <ele>111.17</ele>
        <time>2013-02-09T07:01:04Z</time>
      </trkpt>
      <trkpt lat="58.6616628058" lon="16.0185777023">
        <ele>111.65</ele>
        <time>2013-02-09T07:01:08Z</time>
      </trkpt>
      <trkpt lat="58.6616725288" lon="16.0185756907">
        <ele>111.65</ele>
        <time>2013-02-09T07:01:27Z</time>
      </trkpt>
      <trkpt lat="58.6617162824" lon="16.0185495391">
        <ele>111.65</ele>
        <time>2013-02-09T07:01:40Z</time>
      </trkpt>
      <trkpt lat="58.6618089024" lon="16.018617684">
        <ele>111.65</ele>
        <time>2013-02-09T07:01:46Z</time>
      </trkpt>
      <trkpt lat="58.6618565954" lon="16.0187538899">
        <ele>110.69</ele>
        <time>2013-02-09T07:01:50Z</time>
      </trkpt>
      <trkpt lat="58.6620401591" lon="16.0194282979">
        <ele>108.77</ele>
        <time>2013-02-09T07:02:06Z</time>
      </trkpt>
      <trkpt lat="58.6622202024" lon="16.0199793242">
        <ele>108.29</ele>
        <time>2013-02-09T07:02:20Z</time>
      </trkpt>
      <trkpt lat="58.6622575019" lon="16.0207050294">
        <ele>106.36</ele>
        <time>2013-02-09T07:02:34Z</time>
      </trkpt>
      <trkpt lat="58.6623480264" lon="16.0213718936">
        <ele>106.84</ele>
        <time>2013-02-09T07:02:52Z</time>
      </trkpt>
      <trkpt lat="58.6624953803" lon="16.0218178108">
        <ele>106.84</ele>
        <time>2013-02-09T07:03:08Z</time>
      </trkpt>
      <trkpt lat="58.6626501102" lon="16.0223034583">
        <ele>104.92</ele>
        <time>2013-02-09T07:03:20Z</time>
      </trkpt>
      <trkpt lat="58.6627463344" lon="16.0229102243">
        <ele>105.88</ele>
        <time>2013-02-09T07:03:37Z</time>
      </trkpt>
      <trkpt lat="58.662749771" lon="16.0234988015">
        <ele>105.88</ele>
        <time>2013-02-09T07:03:53Z</time>
      </trkpt>
      <trkpt lat="58.6627911776" lon="16.0240742192">
        <ele>106.36</ele>
        <time>2013-02-09T07:04:09Z</time>
      </trkpt>
      <trkpt lat="58.662815569" lon="16.0245524067">
        <ele>106.36</ele>
        <time>2013-02-09T07:04:24Z</time>
      </trkpt>
      <trkpt lat="58.6628537904" lon="16.0251654591">
        <ele>106.84</ele>
        <time>2013-02-09T07:04:43Z</time>
      </trkpt>
      <trkpt lat="58.6627731565" lon="16.0257439781">
        <ele>108.29</ele>
        <time>2013-02-09T07:05:03Z</time>
      </trkpt>
      <trkpt lat="58.6626076978" lon="16.0261003766">
        <ele>110.69</ele>
        <time>2013-02-09T07:05:21Z</time>
      </trkpt>
      <trkpt lat="58.6624087114" lon="16.0264344793">
        <ele>113.09</ele>
        <time>2013-02-09T07:05:41Z</time>
      </trkpt>
      <trkpt lat="58.6621831544" lon="16.0266988445">
        <ele>114.53</ele>
        <time>2013-02-09T07:05:59Z</time>
      </trkpt>
      <trkpt lat="58.6619739421" lon="16.0270877648">
        <ele>114.53</ele>
        <time>2013-02-09T07:06:16Z</time>
      </trkpt>
      <trkpt lat="58.6618479621" lon="16.0275486019">
        <ele>115.01</ele>
        <time>2013-02-09T07:06:33Z</time>
      </trkpt>
      <trkpt lat="58.6618041247" lon="16.0281246901">
        <ele>115.5</ele>
        <time>2013-02-09T07:06:52Z</time>
      </trkpt>
      <trkpt lat="58.6618796457" lon="16.0282883886">
        <ele>114.53</ele>
        <time>2013-02-09T07:07:00Z</time>
      </trkpt>
      <trkpt lat="58.662017528" lon="16.0284633189">
        <ele>114.53</ele>
        <time>2013-02-09T07:07:17Z</time>
      </trkpt>
      <trkpt lat="58.6622061208" lon="16.0285023786">
        <ele>110.21</ele>
        <time>2013-02-09T07:07:25Z</time>
      </trkpt>
      <trkpt lat="58.6623853259" lon="16.0286400095">
        <ele>105.4</ele>
        <time>2013-02-09T07:07:29Z</time>
      </trkpt>
      <trkpt lat="58.6624331027" lon="16.0286943242">
        <ele>104.92</ele>
        <time>2013-02-09T07:07:30Z</time>
      </trkpt>
      <trkpt lat="58.6625295784" lon="16.0288368165">
        <ele>102.52</ele>
        <time>2013-02-09T07:07:32Z</time>
      </trkpt>
      <trkpt lat="58.6626570672" lon="16.0291829892">
        <ele>98.67</ele>
        <time>2013-02-09T07:07:36Z</time>
      </trkpt>
      <trkpt lat="58.6626350228" lon="16.0296648648">
        <ele>97.71</ele>
        <time>2013-02-09T07:07:49Z</time>
      </trkpt>
      <trkpt lat="58.6625162512" lon="16.0301294737">
        <ele>98.19</ele>
        <time>2013-02-09T07:08:08Z</time>
      </trkpt>
      <trkpt lat="58.6625330988" lon="16.0303662624">
        <ele>98.19</ele>
        <time>2013-02-09T07:08:19Z</time>
      </trkpt>
      <trkpt lat="58.6627226975" lon="16.0305301286">
        <ele>97.71</ele>
        <time>2013-02-09T07:08:33Z</time>
      </trkpt>
      <trkpt lat="58.6627936922" lon="16.0306092538">
        <ele>98.67</ele>
        <time>2013-02-09T07:08:38Z</time>
      </trkpt>
      <trkpt lat="58.6628154013" lon="16.0307773948">
        <ele>97.71</ele>
        <time>2013-02-09T07:08:44Z</time>
      </trkpt>
      <trkpt lat="58.6626740824" lon="16.031213589">
        <ele>97.23</ele>
        <time>2013-02-09T07:09:01Z</time>
      </trkpt>
      <trkpt lat="58.6626064405" lon="16.0317139048">
        <ele>95.79</ele>
        <time>2013-02-09T07:09:19Z</time>
      </trkpt>
      <trkpt lat="58.6626698077" lon="16.0320445709">
        <ele>92.9</ele>
        <time>2013-02-09T07:09:26Z</time>
      </trkpt>
      <trkpt lat="58.6627325881" lon="16.032390995">
        <ele>90.02</ele>
        <time>2013-02-09T07:09:31Z</time>
      </trkpt>
      <trkpt lat="58.6627444066" lon="16.032448411">
        <ele>89.54</ele>
        <time>2013-02-09T07:09:32Z</time>
      </trkpt>
      <trkpt lat="58.6627747491" lon="16.0328297876">
        <ele>89.06</ele>
        <time>2013-02-09T07:09:42Z</time>
      </trkpt>
      <trkpt lat="58.6626136489" lon="16.0332964081">
        <ele>87.62</ele>
        <time>2013-02-09T07:10:01Z</time>
      </trkpt>
      <trkpt lat="58.6624785326" lon="16.0337263159">
        <ele>86.18</ele>
        <time>2013-02-09T07:10:17Z</time>
      </trkpt>
      <trkpt lat="58.6623782851" lon="16.0341926012">
        <ele>84.73</ele>
        <time>2013-02-09T07:10:35Z</time>
      </trkpt>
      <trkpt lat="58.6623716634" lon="16.0344073456">
        <ele>84.25</ele>
        <time>2013-02-09T07:10:48Z</time>
      </trkpt>
      <trkpt lat="58.6623978987" lon="16.0344245285">
        <ele>84.73</ele>
        <time>2013-02-09T07:11:13Z</time>
      </trkpt>
      <trkpt lat="58.6623245571" lon="16.0344951879">
        <ele>85.21</ele>
        <time>2013-02-09T07:11:33Z</time>
      </trkpt>
      <trkpt lat="58.662356576" lon="16.0344948526">
        <ele>85.69</ele>
        <time>2013-02-09T07:11:52Z</time>
      </trkpt>
      <trkpt lat="58.6623819731" lon="16.034582695">
        <ele>85.21</ele>
        <time>2013-02-09T07:11:57Z</time>
      </trkpt>
      <trkpt lat="58.6624486931" lon="16.0346675199">
        <ele>84.73</ele>
        <time>2013-02-09T07:12:02Z</time>
      </trkpt>
      <trkpt lat="58.6626924388" lon="16.0349674243">
        <ele>84.25</ele>
        <time>2013-02-09T07:12:26Z</time>
      </trkpt>
      <trkpt lat="58.6627535429" lon="16.0349655803">
        <ele>84.73</ele>
        <time>2013-02-09T07:12:32Z</time>
      </trkpt>
      <trkpt lat="58.6630389467" lon="16.034964323">
        <ele>85.21</ele>
        <time>2013-02-09T07:12:53Z</time>
      </trkpt>
      <trkpt lat="58.6632945947" lon="16.0349185579">
        <ele>84.73</ele>
        <time>2013-02-09T07:13:12Z</time>
      </trkpt>
      <trkpt lat="58.6635002866" lon="16.0347150452">
        <ele>84.25</ele>
        <time>2013-02-09T07:13:30Z</time>
      </trkpt>
      <trkpt lat="58.6636337265" lon="16.0345601477">
        <ele>84.73</ele>
        <time>2013-02-09T07:13:44Z</time>
      </trkpt>
      <trkpt lat="58.6638375744" lon="16.0343963653">
        <ele>85.69</ele>
        <time>2013-02-09T07:14:03Z</time>
      </trkpt>
      <trkpt lat="58.6640442722" lon="16.0342511907">
        <ele>85.69</ele>
        <time>2013-02-09T07:14:21Z</time>
      </trkpt>
      <trkpt lat="58.664312996" lon="16.0340844747">
        <ele>84.25</ele>
        <time>2013-02-09T07:14:42Z</time>
      </trkpt>
      <trkpt lat="58.6645584181" lon="16.0338881705">
        <ele>82.81</ele>
        <time>2013-02-09T07:14:59Z</time>
      </trkpt>
      <trkpt lat="58.6647804547" lon="16.0337430798">
        <ele>80.89</ele>
        <time>2013-02-09T07:15:16Z</time>
      </trkpt>
      <trkpt lat="58.6650522798" lon="16.0335823987">
        <ele>79.45</ele>
        <time>2013-02-09T07:15:33Z</time>
      </trkpt>
      <trkpt lat="58.665330559" lon="16.0334960651">
        <ele>80.41</ele>
        <time>2013-02-09T07:15:53Z</time>
      </trkpt>
      <trkpt lat="58.6655774899" lon="16.0334498808">
        <ele>80.89</ele>
        <time>2013-02-09T07:16:13Z</time>
      </trkpt>
      <trkpt lat="58.665776141" lon="16.0335091408">
        <ele>82.33</ele>
        <time>2013-02-09T07:16:31Z</time>
      </trkpt>
      <trkpt lat="58.6660477985" lon="16.0336222965">
        <ele>83.29</ele>
        <time>2013-02-09T07:16:49Z</time>
      </trkpt>
      <trkpt lat="58.6662382353" lon="16.0337894317">
        <ele>84.25</ele>
        <time>2013-02-09T07:17:08Z</time>
      </trkpt>
      <trkpt lat="58.6664611101" lon="16.0337524675">
        <ele>85.69</ele>
        <time>2013-02-09T07:17:27Z</time>
      </trkpt>
      <trkpt lat="58.6665942147" lon="16.0337556526">
        <ele>86.18</ele>
        <time>2013-02-09T07:17:38Z</time>
      </trkpt>
      <trkpt lat="58.6668187659" lon="16.0340203531">
        <ele>86.18</ele>
        <time>2013-02-09T07:17:58Z</time>
      </trkpt>
      <trkpt lat="58.6668614298" lon="16.034063017">
        <ele>86.18</ele>
        <time>2013-02-09T07:18:01Z</time>
      </trkpt>
      <trkpt lat="58.6670097057" lon="16.0344981216">
        <ele>86.66</ele>
        <time>2013-02-09T07:18:19Z</time>
      </trkpt>
      <trkpt lat="58.6670444906" lon="16.034720242">
        <ele>86.18</ele>
        <time>2013-02-09T07:18:27Z</time>
      </trkpt>
      <trkpt lat="58.6670937762" lon="16.0351408459">
        <ele>86.18</ele>
        <time>2013-02-09T07:18:43Z</time>
      </trkpt>
      <trkpt lat="58.6671191733" lon="16.0354018584">
        <ele>86.66</ele>
        <time>2013-02-09T07:18:53Z</time>
      </trkpt>
      <trkpt lat="58.6671725661" lon="16.0358821414">
        <ele>85.69</ele>
        <time>2013-02-09T07:19:11Z</time>
      </trkpt>
      <trkpt lat="58.6671247054" lon="16.0362594109">
        <ele>84.73</ele>
        <time>2013-02-09T07:19:24Z</time>
      </trkpt>
      <trkpt lat="58.6669072788" lon="16.0368800908">
        <ele>81.37</ele>
        <time>2013-02-09T07:19:36Z</time>
      </trkpt>
      <trkpt lat="58.6667479388" lon="16.0374326259">
        <ele>78.97</ele>
        <time>2013-02-09T07:19:47Z</time>
      </trkpt>
      <trkpt lat="58.6667764373" lon="16.03755299">
        <ele>78</ele>
        <time>2013-02-09T07:19:52Z</time>
      </trkpt>
      <trkpt lat="58.6669180915" lon="16.0377240647">
        <ele>78.97</ele>
        <time>2013-02-09T07:20:07Z</time>
      </trkpt>
      <trkpt lat="58.6670269724" lon="16.0380996577">
        <ele>78.48</ele>
        <time>2013-02-09T07:20:22Z</time>
      </trkpt>
      <trkpt lat="58.6671305727" lon="16.0384262167">
        <ele>78.48</ele>
        <time>2013-02-09T07:20:39Z</time>
      </trkpt>
      <trkpt lat="58.6671765056" lon="16.0386757459">
        <ele>80.89</ele>
        <time>2013-02-09T07:20:54Z</time>
      </trkpt>
      <trkpt lat="58.6672715563" lon="16.0386583116">
        <ele>83.77</ele>
        <time>2013-02-09T07:21:10Z</time>
      </trkpt>
      <trkpt lat="58.6673381086" lon="16.0386832058">
        <ele>85.21</ele>
        <time>2013-02-09T07:21:30Z</time>
      </trkpt>
      <trkpt lat="58.6674148031" lon="16.0389132053">
        <ele>87.62</ele>
        <time>2013-02-09T07:21:48Z</time>
      </trkpt>
      <trkpt lat="58.6675133742" lon="16.0391261056">
        <ele>89.06</ele>
        <time>2013-02-09T07:22:13Z</time>
      </trkpt>
      <trkpt lat="58.6675875541" lon="16.0393975116">
        <ele>91.94</ele>
        <time>2013-02-09T07:22:30Z</time>
      </trkpt>
      <trkpt lat="58.6676698644" lon="16.0397343803">
        <ele>93.87</ele>
        <time>2013-02-09T07:22:49Z</time>
      </trkpt>
      <trkpt lat="58.6677377578" lon="16.0399630386">
        <ele>96.27</ele>
        <time>2013-02-09T07:23:06Z</time>
      </trkpt>
      <trkpt lat="58.667772375" lon="16.0401937924">
        <ele>97.23</ele>
        <time>2013-02-09T07:23:19Z</time>
      </trkpt>
      <trkpt lat="58.6678033043" lon="16.0405669548">
        <ele>98.67</ele>
        <time>2013-02-09T07:23:37Z</time>
      </trkpt>
      <trkpt lat="58.6678674258" lon="16.0407017358">
        <ele>98.19</ele>
        <time>2013-02-09T07:23:54Z</time>
      </trkpt>
      <trkpt lat="58.6678948347" lon="16.0406945273">
        <ele>98.67</ele>
        <time>2013-02-09T07:24:08Z</time>
      </trkpt>
      <trkpt lat="58.6679619737" lon="16.0407265462">
        <ele>98.67</ele>
        <time>2013-02-09T07:24:33Z</time>
      </trkpt>
      <trkpt lat="58.6680086609" lon="16.041036509">
        <ele>99.15</ele>
        <time>2013-02-09T07:24:48Z</time>
      </trkpt>
      <trkpt lat="58.6681199726" lon="16.041338928">
        <ele>99.63</ele>
        <time>2013-02-09T07:25:03Z</time>
      </trkpt>
      <trkpt lat="58.6682165321" lon="16.0415930673">
        <ele>100.11</ele>
        <time>2013-02-09T07:25:19Z</time>
      </trkpt>
      <trkpt lat="58.6683875229" lon="16.0417357273">
        <ele>102.52</ele>
        <time>2013-02-09T07:25:36Z</time>
      </trkpt>
      <trkpt lat="58.6685123295" lon="16.041995734">
        <ele>103.48</ele>
        <time>2013-02-09T07:25:50Z</time>
      </trkpt>
      <trkpt lat="58.6686444283" lon="16.042284742">
        <ele>104.44</ele>
        <time>2013-02-09T07:26:07Z</time>
      </trkpt>
      <trkpt lat="58.6687835678" lon="16.0425076168">
        <ele>104.44</ele>
        <time>2013-02-09T07:26:24Z</time>
      </trkpt>
      <trkpt lat="58.6688418221" lon="16.0426801164">
        <ele>103.48</ele>
        <time>2013-02-09T07:26:34Z</time>
      </trkpt>
      <trkpt lat="58.6689455062" lon="16.0430617444">
        <ele>103.96</ele>
        <time>2013-02-09T07:26:52Z</time>
      </trkpt>
      <trkpt lat="58.6690604221" lon="16.043301383">
        <ele>106.84</ele>
        <time>2013-02-09T07:27:08Z</time>
      </trkpt>
      <trkpt lat="58.6692617554" lon="16.0435124394">
        <ele>106.84</ele>
        <time>2013-02-09T07:27:26Z</time>
      </trkpt>
      <trkpt lat="58.6694019008" lon="16.0437618848">
        <ele>103.96</ele>
        <time>2013-02-09T07:27:34Z</time>
      </trkpt>
      <trkpt lat="58.6695371009" lon="16.0438524932">
        <ele>105.88</ele>
        <time>2013-02-09T07:27:45Z</time>
      </trkpt>
      <trkpt lat="58.6696898192" lon="16.044088779">
        <ele>106.36</ele>
        <time>2013-02-09T07:28:01Z</time>
      </trkpt>
      <trkpt lat="58.6697976105" lon="16.0443276633">
        <ele>107.81</ele>
        <time>2013-02-09T07:28:18Z</time>
      </trkpt>
      <trkpt lat="58.6699116044" lon="16.0444878414">
        <ele>110.21</ele>
        <time>2013-02-09T07:28:37Z</time>
      </trkpt>
      <trkpt lat="58.6699453834" lon="16.0445133224">
        <ele>111.17</ele>
        <time>2013-02-09T07:29:00Z</time>
      </trkpt>
      <trkpt lat="58.670031298" lon="16.0446440801">
        <ele>112.61</ele>
        <time>2013-02-09T07:29:23Z</time>
      </trkpt>
      <trkpt lat="58.6700831819" lon="16.0447919369">
        <ele>114.53</ele>
        <time>2013-02-09T07:29:39Z</time>
      </trkpt>
      <trkpt lat="58.6702334695" lon="16.0449366085">
        <ele>115.01</ele>
        <time>2013-02-09T07:29:55Z</time>
      </trkpt>
      <trkpt lat="58.6704404186" lon="16.0451558791">
        <ele>113.09</ele>
        <time>2013-02-09T07:30:12Z</time>
      </trkpt>
      <trkpt lat="58.6704752874" lon="16.0452276282">
        <ele>112.61</ele>
        <time>2013-02-09T07:30:16Z</time>
      </trkpt>
      <trkpt lat="58.670649128" lon="16.0454970226">
        <ele>112.13</ele>
        <time>2013-02-09T07:30:37Z</time>
      </trkpt>
      <trkpt lat="58.6708035227" lon="16.0455662571">
        <ele>112.13</ele>
        <time>2013-02-09T07:30:53Z</time>
      </trkpt>
      <trkpt lat="58.6709936243" lon="16.0456183925">
        <ele>113.09</ele>
        <time>2013-02-09T07:31:11Z</time>
      </trkpt>
      <trkpt lat="58.6711569037" lon="16.0457395948">
        <ele>114.53</ele>
        <time>2013-02-09T07:31:28Z</time>
      </trkpt>
      <trkpt lat="58.6713325046" lon="16.0458915588">
        <ele>114.05</ele>
        <time>2013-02-09T07:31:46Z</time>
      </trkpt>
      <trkpt lat="58.6713854782" lon="16.0459260084">
        <ele>113.57</ele>
        <time>2013-02-09T07:31:51Z</time>
      </trkpt>
      <trkpt lat="58.6715640966" lon="16.0460327938">
        <ele>111.17</ele>
        <time>2013-02-09T07:32:08Z</time>
      </trkpt>
      <trkpt lat="58.6715954449" lon="16.0460413434">
        <ele>111.65</ele>
        <time>2013-02-09T07:32:27Z</time>
      </trkpt>
      <trkpt lat="58.6715985462" lon="16.0461224802">
        <ele>110.21</ele>
        <time>2013-02-09T07:32:52Z</time>
      </trkpt>
      <trkpt lat="58.6716760788" lon="16.0460518207">
        <ele>110.69</ele>
        <time>2013-02-09T07:33:18Z</time>
      </trkpt>
      <trkpt lat="58.6717438046" lon="16.0461102426">
        <ele>109.25</ele>
        <time>2013-02-09T07:33:36Z</time>
      </trkpt>
      <trkpt lat="58.6717496719" lon="16.0461645573">
        <ele>109.73</ele>
        <time>2013-02-09T07:33:38Z</time>
      </trkpt>
      <trkpt lat="58.6717418768" lon="16.0464848299">
        <ele>110.69</ele>
        <time>2013-02-09T07:33:52Z</time>
      </trkpt>
      <trkpt lat="58.6717428826" lon="16.0466018412">
        <ele>112.13</ele>
        <time>2013-02-09T07:34:00Z</time>
      </trkpt>
      <trkpt lat="58.6717565451" lon="16.0467049386">
        <ele>113.57</ele>
        <time>2013-02-09T07:34:05Z</time>
      </trkpt>
      <trkpt lat="58.6717609037" lon="16.0469319206">
        <ele>115.01</ele>
        <time>2013-02-09T07:34:18Z</time>
      </trkpt>
      <trkpt lat="58.671837179" lon="16.0473850463">
        <ele>113.57</ele>
        <time>2013-02-09T07:34:35Z</time>
      </trkpt>
      <trkpt lat="58.6719204113" lon="16.0477728769">
        <ele>113.09</ele>
        <time>2013-02-09T07:34:51Z</time>
      </trkpt>
      <trkpt lat="58.6720587965" lon="16.0482961591">
        <ele>111.65</ele>
        <time>2013-02-09T07:35:07Z</time>
      </trkpt>
      <trkpt lat="58.6720656697" lon="16.0483137611">
        <ele>111.65</ele>
        <time>2013-02-09T07:35:08Z</time>
      </trkpt>
      <trkpt lat="58.6721778195" lon="16.0486829001">
        <ele>110.21</ele>
        <time>2013-02-09T07:35:24Z</time>
      </trkpt>
      <trkpt lat="58.6722551007" lon="16.0489393864">
        <ele>112.13</ele>
        <time>2013-02-09T07:35:38Z</time>
      </trkpt>
      <trkpt lat="58.6723321304" lon="16.0493723117">
        <ele>112.61</ele>
        <time>2013-02-09T07:35:55Z</time>
      </trkpt>
      <trkpt lat="58.6724167876" lon="16.0497608967">
        <ele>113.57</ele>
        <time>2013-02-09T07:36:12Z</time>
      </trkpt>
      <trkpt lat="58.6725146044" lon="16.0501779802">
        <ele>113.57</ele>
        <time>2013-02-09T07:36:29Z</time>
      </trkpt>
      <trkpt lat="58.6725638062" lon="16.0505488794">
        <ele>113.57</ele>
        <time>2013-02-09T07:36:45Z</time>
      </trkpt>
      <trkpt lat="58.6725306977" lon="16.0509585869">
        <ele>113.09</ele>
        <time>2013-02-09T07:37:00Z</time>
      </trkpt>
      <trkpt lat="58.6725565977" lon="16.0512252152">
        <ele>112.61</ele>
        <time>2013-02-09T07:37:12Z</time>
      </trkpt>
      <trkpt lat="58.6727075558" lon="16.0513226967">
        <ele>112.13</ele>
        <time>2013-02-09T07:37:24Z</time>
      </trkpt>
      <trkpt lat="58.6727637984" lon="16.0514672007">
        <ele>112.13</ele>
        <time>2013-02-09T07:37:32Z</time>
      </trkpt>
      <trkpt lat="58.6729123257" lon="16.0516262054">
        <ele>114.05</ele>
        <time>2013-02-09T07:37:46Z</time>
      </trkpt>
      <trkpt lat="58.6730476934" lon="16.0518373456">
        <ele>114.53</ele>
        <time>2013-02-09T07:38:02Z</time>
      </trkpt>
      <trkpt lat="58.6731457617" lon="16.0521101765">
        <ele>115.98</ele>
        <time>2013-02-09T07:38:19Z</time>
      </trkpt>
      <trkpt lat="58.6731476896" lon="16.0522815865">
        <ele>116.46</ele>
        <time>2013-02-09T07:38:27Z</time>
      </trkpt>
      <trkpt lat="58.6731858272" lon="16.0526700038">
        <ele>118.38</ele>
        <time>2013-02-09T07:38:46Z</time>
      </trkpt>
      <trkpt lat="58.6732030101" lon="16.0530396458">
        <ele>119.34</ele>
        <time>2013-02-09T07:39:01Z</time>
      </trkpt>
      <trkpt lat="58.6731885932" lon="16.0533962119">
        <ele>119.34</ele>
        <time>2013-02-09T07:39:14Z</time>
      </trkpt>
      <trkpt lat="58.6732298322" lon="16.0537589807">
        <ele>116.46</ele>
        <time>2013-02-09T07:39:23Z</time>
      </trkpt>
      <trkpt lat="58.6732298322" lon="16.0541286226">
        <ele>115.98</ele>
        <time>2013-02-09T07:39:36Z</time>
      </trkpt>
      <trkpt lat="58.6732057761" lon="16.0545462091">
        <ele>113.09</ele>
        <time>2013-02-09T07:39:50Z</time>
      </trkpt>
      <trkpt lat="58.6730927043" lon="16.0549047031">
        <ele>113.09</ele>
        <time>2013-02-09T07:40:04Z</time>
      </trkpt>
      <trkpt lat="58.6730890162" lon="16.0549338721">
        <ele>113.09</ele>
        <time>2013-02-09T07:40:06Z</time>
      </trkpt>
      <trkpt lat="58.673034953" lon="16.0551392287">
        <ele>113.09</ele>
        <time>2013-02-09T07:40:15Z</time>
      </trkpt>
      <trkpt lat="58.672882067" lon="16.0555942822">
        <ele>111.17</ele>
        <time>2013-02-09T07:40:29Z</time>
      </trkpt>
      <trkpt lat="58.6727972422" lon="16.055953363">
        <ele>110.21</ele>
        <time>2013-02-09T07:40:44Z</time>
      </trkpt>
      <trkpt lat="58.672775114" lon="16.0561865475">
        <ele>109.25</ele>
        <time>2013-02-09T07:40:56Z</time>
      </trkpt>
      <trkpt lat="58.6728247348" lon="16.0564109311">
        <ele>109.25</ele>
        <time>2013-02-09T07:41:08Z</time>
      </trkpt>
      <trkpt lat="58.6728680693" lon="16.0566118453">
        <ele>109.25</ele>
        <time>2013-02-09T07:41:24Z</time>
      </trkpt>
      <trkpt lat="58.6728888564" lon="16.0566091631">
        <ele>108.77</ele>
        <time>2013-02-09T07:41:27Z</time>
      </trkpt>
      <trkpt lat="58.6729720049" lon="16.0567362327">
        <ele>108.77</ele>
        <time>2013-02-09T07:41:35Z</time>
      </trkpt>
      <trkpt lat="58.6731123179" lon="16.0571115743">
        <ele>110.69</ele>
        <time>2013-02-09T07:41:54Z</time>
      </trkpt>
      <trkpt lat="58.6731606815" lon="16.0572074633">
        <ele>110.69</ele>
        <time>2013-02-09T07:42:00Z</time>
      </trkpt>
      <trkpt lat="58.67326512" lon="16.0572629515">
        <ele>110.69</ele>
        <time>2013-02-09T07:42:10Z</time>
      </trkpt>
      <trkpt lat="58.6734082829" lon="16.057428075">
        <ele>112.13</ele>
        <time>2013-02-09T07:42:27Z</time>
      </trkpt>
      <trkpt lat="58.6735771783" lon="16.0575900972">
        <ele>112.13</ele>
        <time>2013-02-09T07:42:44Z</time>
      </trkpt>
      <trkpt lat="58.6737070978" lon="16.0577867366">
        <ele>114.05</ele>
        <time>2013-02-09T07:42:59Z</time>
      </trkpt>
      <trkpt lat="58.6737603229" lon="16.057814816">
        <ele>115.01</ele>
        <time>2013-02-09T07:43:05Z</time>
      </trkpt>
      <trkpt lat="58.6739498377" lon="16.0577898379">
        <ele>115.5</ele>
        <time>2013-02-09T07:43:22Z</time>
      </trkpt>
      <trkpt lat="58.6740881391" lon="16.0576795321">
        <ele>116.94</ele>
        <time>2013-02-09T07:43:37Z</time>
      </trkpt>
      <trkpt lat="58.6742767319" lon="16.0574880056">
        <ele>117.9</ele>
        <time>2013-02-09T07:43:55Z</time>
      </trkpt>
      <trkpt lat="58.6744862795" lon="16.0574445035">
        <ele>119.34</ele>
        <time>2013-02-09T07:44:12Z</time>
      </trkpt>
      <trkpt lat="58.6746577732" lon="16.0575473495">
        <ele>119.34</ele>
        <time>2013-02-09T07:44:26Z</time>
      </trkpt>
      <trkpt lat="58.6747893691" lon="16.0577273928">
        <ele>119.82</ele>
        <time>2013-02-09T07:44:41Z</time>
      </trkpt>
      <trkpt lat="58.674855167" lon="16.0577783547">
        <ele>120.3</ele>
        <time>2013-02-09T07:44:50Z</time>
      </trkpt>
      <trkpt lat="58.6749762017" lon="16.0578658618">
        <ele>121.26</ele>
        <time>2013-02-09T07:45:03Z</time>
      </trkpt>
      <trkpt lat="58.6750606913" lon="16.0579600744">
        <ele>121.74</ele>
        <time>2013-02-09T07:45:13Z</time>
      </trkpt>
      <trkpt lat="58.6751078814" lon="16.0581079312">
        <ele>121.74</ele>
        <time>2013-02-09T07:45:22Z</time>
      </trkpt>
      <trkpt lat="58.6751003377" lon="16.0584522597">
        <ele>122.22</ele>
        <time>2013-02-09T07:45:38Z</time>
      </trkpt>
      <trkpt lat="58.6751185264" lon="16.0588929802">
        <ele>121.74</ele>
        <time>2013-02-09T07:45:56Z</time>
      </trkpt>
      <trkpt lat="58.6751825642" lon="16.0591808986">
        <ele>122.71</ele>
        <time>2013-02-09T07:46:10Z</time>
      </trkpt>
      <trkpt lat="58.6752874218" lon="16.0593277495">
        <ele>123.67</ele>
        <time>2013-02-09T07:46:22Z</time>
      </trkpt>
      <trkpt lat="58.675341988" lon="16.0593820643">
        <ele>123.67</ele>
        <time>2013-02-09T07:46:26Z</time>
      </trkpt>
      <trkpt lat="58.6755097937" lon="16.0595865827">
        <ele>122.22</ele>
        <time>2013-02-09T07:46:40Z</time>
      </trkpt>
      <trkpt lat="58.6756019946" lon="16.0599310789">
        <ele>122.22</ele>
        <time>2013-02-09T07:46:55Z</time>
      </trkpt>
      <trkpt lat="58.6756120529" lon="16.060005594">
        <ele>122.22</ele>
        <time>2013-02-09T07:46:58Z</time>
      </trkpt>
      <trkpt lat="58.6756242905" lon="16.0602485854">
        <ele>122.71</ele>
        <time>2013-02-09T07:47:08Z</time>
      </trkpt>
      <trkpt lat="58.6755669583" lon="16.0606138688">
        <ele>122.22</ele>
        <time>2013-02-09T07:47:24Z</time>
      </trkpt>
      <trkpt lat="58.6755634379" lon="16.0609669983">
        <ele>122.22</ele>
        <time>2013-02-09T07:47:38Z</time>
      </trkpt>
      <trkpt lat="58.675586069" lon="16.0611196328">
        <ele>123.67</ele>
        <time>2013-02-09T07:47:53Z</time>
      </trkpt>
      <trkpt lat="58.6755972169" lon="16.061135726">
        <ele>122.22</ele>
        <time>2013-02-09T07:48:06Z</time>
      </trkpt>
      <trkpt lat="58.6756711453" lon="16.0611801501">
        <ele>122.22</ele>
        <time>2013-02-09T07:48:15Z</time>
      </trkpt>
      <trkpt lat="58.6757295672" lon="16.0611595307">
        <ele>121.74</ele>
        <time>2013-02-09T07:48:20Z</time>
      </trkpt>
      <trkpt lat="58.6759200878" lon="16.0610958282">
        <ele>122.22</ele>
        <time>2013-02-09T07:48:36Z</time>
      </trkpt>
      <trkpt lat="58.6761043221" lon="16.0610473808">
        <ele>120.78</ele>
        <time>2013-02-09T07:48:48Z</time>
      </trkpt>
      <trkpt lat="58.676295178" lon="16.0611526575">
        <ele>121.74</ele>
        <time>2013-02-09T07:49:03Z</time>
      </trkpt>
      <trkpt lat="58.6764992774" lon="16.0612789728">
        <ele>122.71</ele>
        <time>2013-02-09T07:49:20Z</time>
      </trkpt>
      <trkpt lat="58.6766603775" lon="16.0613307729">
        <ele>123.67</ele>
        <time>2013-02-09T07:49:35Z</time>
      </trkpt>
      <trkpt lat="58.6768469587" lon="16.0614050366">
        <ele>124.15</ele>
        <time>2013-02-09T07:49:50Z</time>
      </trkpt>
      <trkpt lat="58.6770550814" lon="16.0615573358">
        <ele>123.67</ele>
        <time>2013-02-09T07:50:06Z</time>
      </trkpt>
      <trkpt lat="58.6772356275" lon="16.0616942961">
        <ele>123.19</ele>
        <time>2013-02-09T07:50:21Z</time>
      </trkpt>
      <trkpt lat="58.677406786" lon="16.0617551487">
        <ele>122.22</ele>
        <time>2013-02-09T07:50:34Z</time>
      </trkpt>
      <trkpt lat="58.6775643658" lon="16.0618109722">
        <ele>123.19</ele>
        <time>2013-02-09T07:50:49Z</time>
      </trkpt>
      <trkpt lat="58.6777539644" lon="16.0618621856">
        <ele>123.67</ele>
        <time>2013-02-09T07:51:05Z</time>
      </trkpt>
      <trkpt lat="58.6779500172" lon="16.0620182566">
        <ele>122.71</ele>
        <time>2013-02-09T07:51:21Z</time>
      </trkpt>
      <trkpt lat="58.678010283" lon="16.0619750898">
        <ele>122.71</ele>
        <time>2013-02-09T07:51:31Z</time>
      </trkpt>
      <trkpt lat="58.6780044157" lon="16.0619168356">
        <ele>123.67</ele>
        <time>2013-02-09T07:51:47Z</time>
      </trkpt>
      <trkpt lat="58.678023275" lon="16.0618874151">
        <ele>124.15</ele>
        <time>2013-02-09T07:52:09Z</time>
      </trkpt>
      <trkpt lat="58.67801263" lon="16.0618582461">
        <ele>124.15</ele>
        <time>2013-02-09T07:52:32Z</time>
      </trkpt>
      <trkpt lat="58.6780198384" lon="16.0618255567">
        <ele>124.63</ele>
        <time>2013-02-09T07:52:34Z</time>
      </trkpt>
      <trkpt lat="58.6780179944" lon="16.0617659613">
        <ele>125.11</ele>
        <time>2013-02-09T07:52:37Z</time>
      </trkpt>
      <trkpt lat="58.6779948603" lon="16.0615893546">
        <ele>125.11</ele>
        <time>2013-02-09T07:52:45Z</time>
      </trkpt>
      <trkpt lat="58.6779480055" lon="16.0611501429">
        <ele>125.11</ele>
        <time>2013-02-09T07:53:02Z</time>
      </trkpt>
      <trkpt lat="58.6779133882" lon="16.0608289484">
        <ele>125.11</ele>
        <time>2013-02-09T07:53:16Z</time>
      </trkpt>
      <trkpt lat="58.6778823752" lon="16.0605053231">
        <ele>126.07</ele>
        <time>2013-02-09T07:53:29Z</time>
      </trkpt>
      <trkpt lat="58.6778325029" lon="16.0600843001">
        <ele>126.55</ele>
        <time>2013-02-09T07:53:45Z</time>
      </trkpt>
      <trkpt lat="58.6777752545" lon="16.0596610978">
        <ele>126.55</ele>
        <time>2013-02-09T07:54:03Z</time>
      </trkpt>
      <trkpt lat="58.6776699778" lon="16.0592949763">
        <ele>127.03</ele>
        <time>2013-02-09T07:54:20Z</time>
      </trkpt>
      <trkpt lat="58.6775734182" lon="16.0589353926">
        <ele>125.59</ele>
        <time>2013-02-09T07:54:35Z</time>
      </trkpt>
      <trkpt lat="58.677561935" lon="16.0584187321">
        <ele>122.71</ele>
        <time>2013-02-09T07:54:49Z</time>
      </trkpt>
      <trkpt lat="58.6776438262" lon="16.0580634233">
        <ele>122.71</ele>
        <time>2013-02-09T07:55:04Z</time>
      </trkpt>
      <trkpt lat="58.6777046788" lon="16.0577497724">
        <ele>125.11</ele>
        <time>2013-02-09T07:55:19Z</time>
      </trkpt>
      <trkpt lat="58.677775925" lon="16.0574398097">
        <ele>125.11</ele>
        <time>2013-02-09T07:55:34Z</time>
      </trkpt>
      <trkpt lat="58.6778573971" lon="16.0570991691">
        <ele>126.07</ele>
        <time>2013-02-09T07:55:50Z</time>
      </trkpt>
      <trkpt lat="58.6779479217" lon="16.0567690898">
        <ele>125.11</ele>
        <time>2013-02-09T07:56:05Z</time>
      </trkpt>
      <trkpt lat="58.6780010629" lon="16.0565917287">
        <ele>125.59</ele>
        <time>2013-02-09T07:56:13Z</time>
      </trkpt>
      <trkpt lat="58.678019587" lon="16.0565325525">
        <ele>125.11</ele>
        <time>2013-02-09T07:56:16Z</time>
      </trkpt>
      <trkpt lat="58.6781268753" lon="16.0562575422">
        <ele>125.59</ele>
        <time>2013-02-09T07:56:30Z</time>
      </trkpt>
      <trkpt lat="58.6782325711" lon="16.0559724737">
        <ele>126.07</ele>
        <time>2013-02-09T07:56:44Z</time>
      </trkpt>
      <trkpt lat="58.6783522647" lon="16.0556725692">
        <ele>126.55</ele>
        <time>2013-02-09T07:57:00Z</time>
      </trkpt>
      <trkpt lat="58.6783907376" lon="16.0555796139">
        <ele>127.03</ele>
        <time>2013-02-09T07:57:05Z</time>
      </trkpt>
      <trkpt lat="58.6784432083" lon="16.0554497782">
        <ele>127.03</ele>
        <time>2013-02-09T07:57:12Z</time>
      </trkpt>
      <trkpt lat="58.6784701142" lon="16.0553414002">
        <ele>128.47</ele>
        <time>2013-02-09T07:57:25Z</time>
      </trkpt>
      <trkpt lat="58.6784939189" lon="16.0552762728">
        <ele>127.03</ele>
        <time>2013-02-09T07:57:41Z</time>
      </trkpt>
      <trkpt lat="58.6784879677" lon="16.0550364666">
        <ele>127.51</ele>
        <time>2013-02-09T07:57:52Z</time>
      </trkpt>
      <trkpt lat="58.6784810107" lon="16.0545910522">
        <ele>127.51</ele>
        <time>2013-02-09T07:58:09Z</time>
      </trkpt>
      <trkpt lat="58.6785261054" lon="16.0542630684">
        <ele>128.47</ele>
        <time>2013-02-09T07:58:26Z</time>
      </trkpt>
      <trkpt lat="58.6784271989" lon="16.0538451467">
        <ele>128.95</ele>
        <time>2013-02-09T07:58:43Z</time>
      </trkpt>
      <trkpt lat="58.6782997102" lon="16.0535480082">
        <ele>129.43</ele>
        <time>2013-02-09T07:58:59Z</time>
      </trkpt>
      <trkpt lat="58.6781499255" lon="16.0533694737">
        <ele>130.88</ele>
        <time>2013-02-09T07:59:14Z</time>
      </trkpt>
      <trkpt lat="58.6781029031" lon="16.0533529613">
        <ele>131.84</ele>
        <time>2013-02-09T07:59:19Z</time>
      </trkpt>
      <trkpt lat="58.6779068504" lon="16.0533120576">
        <ele>130.88</ele>
        <time>2013-02-09T07:59:34Z</time>
      </trkpt>
      <trkpt lat="58.6778260488" lon="16.0533202719">
        <ele>130.88</ele>
        <time>2013-02-09T07:59:49Z</time>
      </trkpt>
      <trkpt lat="58.6778188404" lon="16.0533196013">
        <ele>129.92</ele>
        <time>2013-02-09T08:00:08Z</time>
      </trkpt>
      <trkpt lat="58.6778029986" lon="16.0532864928">
        <ele>130.88</ele>
        <time>2013-02-09T08:00:26Z</time>
      </trkpt>
      <trkpt lat="58.6777941976" lon="16.0532569047">
        <ele>130.88</ele>
        <time>2013-02-09T08:00:28Z</time>
      </trkpt>
      <trkpt lat="58.6777474266" lon="16.0529949702">
        <ele>132.8</ele>
        <time>2013-02-09T08:00:42Z</time>
      </trkpt>
      <trkpt lat="58.6776693072" lon="16.0526775476">
        <ele>134.24</ele>
        <time>2013-02-09T08:00:57Z</time>
      </trkpt>
      <trkpt lat="58.6775727477" lon="16.0523048043">
        <ele>132.8</ele>
        <time>2013-02-09T08:01:11Z</time>
      </trkpt>
      <trkpt lat="58.6774973106" lon="16.0520013794">
        <ele>131.84</ele>
        <time>2013-02-09T08:01:24Z</time>
      </trkpt>
      <trkpt lat="58.6774932873" lon="16.0519786645">
        <ele>132.32</ele>
        <time>2013-02-09T08:01:26Z</time>
      </trkpt>
      <trkpt lat="58.6774553172" lon="16.0517922509">
        <ele>131.36</ele>
        <time>2013-02-09T08:01:32Z</time>
      </trkpt>
      <trkpt lat="58.6773824785" lon="16.0514753312">
        <ele>131.36</ele>
        <time>2013-02-09T08:01:47Z</time>
      </trkpt>
      <trkpt lat="58.6773507111" lon="16.0513283964">
        <ele>130.4</ele>
        <time>2013-02-09T08:01:52Z</time>
      </trkpt>
      <trkpt lat="58.6773023475" lon="16.0510932002">
        <ele>128.95</ele>
        <time>2013-02-09T08:02:05Z</time>
      </trkpt>
      <trkpt lat="58.6773279123" lon="16.0511253867">
        <ele>129.43</ele>
        <time>2013-02-09T08:02:22Z</time>
      </trkpt>
      <trkpt lat="58.6774288304" lon="16.0510887578">
        <ele>129.43</ele>
        <time>2013-02-09T08:02:32Z</time>
      </trkpt>
      <trkpt lat="58.6775497813" lon="16.0508171842">
        <ele>129.92</ele>
        <time>2013-02-09T08:02:46Z</time>
      </trkpt>
      <trkpt lat="58.6776081193" lon="16.0507096443">
        <ele>130.4</ele>
        <time>2013-02-09T08:02:54Z</time>
      </trkpt>
      <trkpt lat="58.6777373683" lon="16.0505409166">
        <ele>127.99</ele>
        <time>2013-02-09T08:03:06Z</time>
      </trkpt>
      <trkpt lat="58.6777605023" lon="16.050536558">
        <ele>129.43</ele>
        <time>2013-02-09T08:03:13Z</time>
      </trkpt>
      <trkpt lat="58.6778470874" lon="16.0505209677">
        <ele>129.43</ele>
        <time>2013-02-09T08:03:21Z</time>
      </trkpt>
      <trkpt lat="58.6778756697" lon="16.0504394118">
        <ele>130.4</ele>
        <time>2013-02-09T08:03:26Z</time>
      </trkpt>
      <trkpt lat="58.6780252028" lon="16.0502084065">
        <ele>130.88</ele>
        <time>2013-02-09T08:03:41Z</time>
      </trkpt>
      <trkpt lat="58.6781340837" lon="16.0499560274">
        <ele>129.43</ele>
        <time>2013-02-09T08:03:54Z</time>
      </trkpt>
      <trkpt lat="58.6781476624" lon="16.0498009622">
        <ele>129.43</ele>
        <time>2013-02-09T08:04:08Z</time>
      </trkpt>
      <trkpt lat="58.6779294815" lon="16.0498318914">
        <ele>126.55</ele>
        <time>2013-02-09T08:04:20Z</time>
      </trkpt>
      <trkpt lat="58.6777832173" lon="16.0499131959">
        <ele>124.15</ele>
        <time>2013-02-09T08:04:26Z</time>
      </trkpt>
      <trkpt lat="58.6777160782" lon="16.0498310532">
        <ele>123.19</ele>
        <time>2013-02-09T08:04:30Z</time>
      </trkpt>
      <trkpt lat="58.6775876675" lon="16.0494029056">
        <ele>119.34</ele>
        <time>2013-02-09T08:04:38Z</time>
      </trkpt>
      <trkpt lat="58.6775031779" lon="16.0491424799">
        <ele>117.9</ele>
        <time>2013-02-09T08:04:49Z</time>
      </trkpt>
      <trkpt lat="58.6773870047" lon="16.049009962">
        <ele>116.46</ele>
        <time>2013-02-09T08:05:00Z</time>
      </trkpt>
      <trkpt lat="58.6772815604" lon="16.0489765182">
        <ele>114.05</ele>
        <time>2013-02-09T08:05:05Z</time>
      </trkpt>
      <trkpt lat="58.6772594322" lon="16.0489485227">
        <ele>113.57</ele>
        <time>2013-02-09T08:05:07Z</time>
      </trkpt>
      <trkpt lat="58.6771134194" lon="16.0487758555">
        <ele>114.53</ele>
        <time>2013-02-09T08:05:21Z</time>
      </trkpt>
      <trkpt lat="58.6770824064" lon="16.0486455169">
        <ele>116.46</ele>
        <time>2013-02-09T08:05:28Z</time>
      </trkpt>
      <trkpt lat="58.677020967" lon="16.048314767">
        <ele>116.94</ele>
        <time>2013-02-09T08:05:43Z</time>
      </trkpt>
      <trkpt lat="58.6768863536" lon="16.0480153654">
        <ele>115.98</ele>
        <time>2013-02-09T08:05:57Z</time>
      </trkpt>
      <trkpt lat="58.6768198851" lon="16.04785854">
        <ele>116.94</ele>
        <time>2013-02-09T08:06:09Z</time>
      </trkpt>
      <trkpt lat="58.6767439451" lon="16.0476480704">
        <ele>117.9</ele>
        <time>2013-02-09T08:06:24Z</time>
      </trkpt>
      <trkpt lat="58.676687032" lon="16.0474686977">
        <ele>115.98</ele>
        <time>2013-02-09T08:06:30Z</time>
      </trkpt>
      <trkpt lat="58.6766460445" lon="16.0473772511">
        <ele>115.5</ele>
        <time>2013-02-09T08:06:33Z</time>
      </trkpt>
      <trkpt lat="58.6764720362" lon="16.0472283047">
        <ele>113.57</ele>
        <time>2013-02-09T08:06:46Z</time>
      </trkpt>
      <trkpt lat="58.6763536837" lon="16.0470189247">
        <ele>112.61</ele>
        <time>2013-02-09T08:06:59Z</time>
      </trkpt>
      <trkpt lat="58.6762644164" lon="16.0468665417">
        <ele>111.65</ele>
        <time>2013-02-09T08:07:12Z</time>
      </trkpt>
      <trkpt lat="58.6762582976" lon="16.0468554776">
        <ele>113.09</ele>
        <time>2013-02-09T08:07:28Z</time>
      </trkpt>
      <trkpt lat="58.6762102693" lon="16.0465999134">
        <ele>110.69</ele>
        <time>2013-02-09T08:07:36Z</time>
      </trkpt>
      <trkpt lat="58.6761519313" lon="16.0463684052">
        <ele>108.29</ele>
        <time>2013-02-09T08:07:40Z</time>
      </trkpt>
      <trkpt lat="58.6760878097" lon="16.0461912956">
        <ele>107.32</ele>
        <time>2013-02-09T08:07:49Z</time>
      </trkpt>
      <trkpt lat="58.6760495882" lon="16.0461486317">
        <ele>108.29</ele>
        <time>2013-02-09T08:08:05Z</time>
      </trkpt>
      <trkpt lat="58.6758875661" lon="16.0462304391">
        <ele>108.29</ele>
        <time>2013-02-09T08:08:18Z</time>
      </trkpt>
      <trkpt lat="58.6758523621" lon="16.0462265834">
        <ele>108.29</ele>
        <time>2013-02-09T08:08:23Z</time>
      </trkpt>
      <trkpt lat="58.6757682916" lon="16.0458798241">
        <ele>108.29</ele>
        <time>2013-02-09T08:08:39Z</time>
      </trkpt>
      <trkpt lat="58.6756827123" lon="16.0457348172">
        <ele>108.29</ele>
        <time>2013-02-09T08:08:49Z</time>
      </trkpt>
      <trkpt lat="58.6755707301" lon="16.0455135349">
        <ele>108.29</ele>
        <time>2013-02-09T08:09:01Z</time>
      </trkpt>
      <trkpt lat="58.6754439957" lon="16.0453816876">
        <ele>108.29</ele>
        <time>2013-02-09T08:09:13Z</time>
      </trkpt>
      <trkpt lat="58.6753303371" lon="16.0451959446">
        <ele>108.29</ele>
        <time>2013-02-09T08:09:26Z</time>
      </trkpt>
      <trkpt lat="58.6753336899" lon="16.0448197648">
        <ele>106.36</ele>
        <time>2013-02-09T08:09:38Z</time>
      </trkpt>
      <trkpt lat="58.6753256433" lon="16.0445346963">
        <ele>104.44</ele>
        <time>2013-02-09T08:09:47Z</time>
      </trkpt>
      <trkpt lat="58.6753015034" lon="16.0444798786">
        <ele>105.4</ele>
        <time>2013-02-09T08:09:57Z</time>
      </trkpt>
      <trkpt lat="58.6752720829" lon="16.0444462672">
        <ele>105.88</ele>
        <time>2013-02-09T08:10:09Z</time>
      </trkpt>
      <trkpt lat="58.6752777826" lon="16.0444364604">
        <ele>105.88</ele>
        <time>2013-02-09T08:10:23Z</time>
      </trkpt>
      <trkpt lat="58.6753015872" lon="16.0443723388">
        <ele>106.36</ele>
        <time>2013-02-09T08:10:27Z</time>
      </trkpt>
      <trkpt lat="58.6752849072" lon="16.0442667268">
        <ele>107.32</ele>
        <time>2013-02-09T08:10:39Z</time>
      </trkpt>
      <trkpt lat="58.6752373818" lon="16.0441856738">
        <ele>108.77</ele>
        <time>2013-02-09T08:10:51Z</time>
      </trkpt>
      <trkpt lat="58.6752236355" lon="16.0441598576">
        <ele>108.77</ele>
        <time>2013-02-09T08:10:53Z</time>
      </trkpt>
      <trkpt lat="58.6751909461" lon="16.0441427585">
        <ele>108.77</ele>
        <time>2013-02-09T08:10:57Z</time>
      </trkpt>
      <trkpt lat="58.6750280019" lon="16.0442430899">
        <ele>107.81</ele>
        <time>2013-02-09T08:11:12Z</time>
      </trkpt>
      <trkpt lat="58.6748989206" lon="16.0443561617">
        <ele>106.36</ele>
        <time>2013-02-09T08:11:25Z</time>
      </trkpt>
      <trkpt lat="58.6747682467" lon="16.0444637854">
        <ele>106.84</ele>
        <time>2013-02-09T08:11:39Z</time>
      </trkpt>
      <trkpt lat="58.6747608706" lon="16.044463031">
        <ele>106.84</ele>
        <time>2013-02-09T08:11:40Z</time>
      </trkpt>
      <trkpt lat="58.6746351421" lon="16.0444810521">
        <ele>108.77</ele>
        <time>2013-02-09T08:11:54Z</time>
      </trkpt>
      <trkpt lat="58.6745141912" lon="16.0444813035">
        <ele>109.25</ele>
        <time>2013-02-09T08:12:06Z</time>
      </trkpt>
      <trkpt lat="58.674360048" lon="16.0445484426">
        <ele>109.25</ele>
        <time>2013-02-09T08:12:21Z</time>
      </trkpt>
      <trkpt lat="58.6741837766" lon="16.0445915256">
        <ele>107.32</ele>
        <time>2013-02-09T08:12:33Z</time>
      </trkpt>
      <trkpt lat="58.6740435474" lon="16.0446641967">
        <ele>108.29</ele>
        <time>2013-02-09T08:12:46Z</time>
      </trkpt>
      <trkpt lat="58.6738740653" lon="16.0447118897">
        <ele>109.25</ele>
        <time>2013-02-09T08:13:02Z</time>
      </trkpt>
      <trkpt lat="58.6737355124" lon="16.044795122">
        <ele>109.25</ele>
        <time>2013-02-09T08:13:15Z</time>
      </trkpt>
      <trkpt lat="58.6736103706" lon="16.0448462516">
        <ele>108.77</ele>
        <time>2013-02-09T08:13:27Z</time>
      </trkpt>
      <trkpt lat="58.6735025793" lon="16.0448414739">
        <ele>108.29</ele>
        <time>2013-02-09T08:13:38Z</time>
      </trkpt>
      <trkpt lat="58.6733206082" lon="16.044891011">
        <ele>108.29</ele>
        <time>2013-02-09T08:13:55Z</time>
      </trkpt>
      <trkpt lat="58.6731916945" lon="16.0449205153">
        <ele>109.25</ele>
        <time>2013-02-09T08:14:11Z</time>
      </trkpt>
      <trkpt lat="58.6731852405" lon="16.044931747">
        <ele>109.25</ele>
        <time>2013-02-09T08:14:17Z</time>
      </trkpt>
      <trkpt lat="58.6730657984" lon="16.0451305658">
        <ele>109.25</ele>
        <time>2013-02-09T08:14:32Z</time>
      </trkpt>
      <trkpt lat="58.672959432" lon="16.0453176498">
        <ele>109.25</ele>
        <time>2013-02-09T08:14:44Z</time>
      </trkpt>
      <trkpt lat="58.6728280038" lon="16.0455564503">
        <ele>109.25</ele>
        <time>2013-02-09T08:14:59Z</time>
      </trkpt>
      <trkpt lat="58.6727103218" lon="16.0457286984">
        <ele>107.81</ele>
        <time>2013-02-09T08:15:10Z</time>
      </trkpt>
      <trkpt lat="58.6725573521" lon="16.0458575282">
        <ele>107.32</ele>
        <time>2013-02-09T08:15:24Z</time>
      </trkpt>
      <trkpt lat="58.6723871995" lon="16.0459992662">
        <ele>106.36</ele>
        <time>2013-02-09T08:15:37Z</time>
      </trkpt>
      <trkpt lat="58.672234565" lon="16.0460311174">
        <ele>108.29</ele>
        <time>2013-02-09T08:15:50Z</time>
      </trkpt>
      <trkpt lat="58.6720704474" lon="16.046035476">
        <ele>109.73</ele>
        <time>2013-02-09T08:16:04Z</time>
      </trkpt>
      <trkpt lat="58.6719540227" lon="16.0460073967">
        <ele>110.69</ele>
        <time>2013-02-09T08:16:13Z</time>
      </trkpt>
      <trkpt lat="58.6717707943" lon="16.0460883658">
        <ele>110.69</ele>
        <time>2013-02-09T08:16:27Z</time>
      </trkpt>
      <trkpt lat="58.6716504302" lon="16.0460277647">
        <ele>112.13</ele>
        <time>2013-02-09T08:16:41Z</time>
      </trkpt>
      <trkpt lat="58.6715964507" lon="16.0459936503">
        <ele>113.09</ele>
        <time>2013-02-09T08:16:46Z</time>
      </trkpt>
      <trkpt lat="58.6715630908" lon="16.0459681693">
        <ele>114.53</ele>
        <time>2013-02-09T08:16:49Z</time>
      </trkpt>
      <trkpt lat="58.6713954527" lon="16.0458664969">
        <ele>115.01</ele>
        <time>2013-02-09T08:17:04Z</time>
      </trkpt>
      <trkpt lat="58.6711921077" lon="16.0456939135">
        <ele>114.53</ele>
        <time>2013-02-09T08:17:19Z</time>
      </trkpt>
      <trkpt lat="58.6709878407" lon="16.0455758125">
        <ele>113.57</ele>
        <time>2013-02-09T08:17:32Z</time>
      </trkpt>
      <trkpt lat="58.6707932968" lon="16.0455385968">
        <ele>113.09</ele>
        <time>2013-02-09T08:17:45Z</time>
      </trkpt>
      <trkpt lat="58.6707525607" lon="16.0455197375">
        <ele>113.09</ele>
        <time>2013-02-09T08:17:48Z</time>
      </trkpt>
      <trkpt lat="58.6706929654" lon="16.0454707872">
        <ele>112.61</ele>
        <time>2013-02-09T08:17:53Z</time>
      </trkpt>
      <trkpt lat="58.6705306079" lon="16.0452959407">
        <ele>112.61</ele>
        <time>2013-02-09T08:18:06Z</time>
      </trkpt>
      <trkpt lat="58.6704721861" lon="16.0451982077">
        <ele>112.61</ele>
        <time>2013-02-09T08:18:13Z</time>
      </trkpt>
      <trkpt lat="58.6704337969" lon="16.0451065097">
        <ele>113.57</ele>
        <time>2013-02-09T08:18:18Z</time>
      </trkpt>
      <trkpt lat="58.6703753751" lon="16.0450330842">
        <ele>114.53</ele>
        <time>2013-02-09T08:18:24Z</time>
      </trkpt>
      <trkpt lat="58.6701754667" lon="16.0448864847">
        <ele>115.01</ele>
        <time>2013-02-09T08:18:39Z</time>
      </trkpt>
      <trkpt lat="58.6699884664" lon="16.0446264781">
        <ele>111.65</ele>
        <time>2013-02-09T08:18:52Z</time>
      </trkpt>
      <trkpt lat="58.6698789988" lon="16.0444456805">
        <ele>108.77</ele>
        <time>2013-02-09T08:18:57Z</time>
      </trkpt>
      <trkpt lat="58.6697940901" lon="16.0443239752">
        <ele>107.32</ele>
        <time>2013-02-09T08:18:59Z</time>
      </trkpt>
      <trkpt lat="58.6695910804" lon="16.0439724382">
        <ele>104.44</ele>
        <time>2013-02-09T08:19:09Z</time>
      </trkpt>
      <trkpt lat="58.6693439819" lon="16.0437259264">
        <ele>103.48</ele>
        <time>2013-02-09T08:19:20Z</time>
      </trkpt>
      <trkpt lat="58.6692376994" lon="16.0435476433">
        <ele>105.88</ele>
        <time>2013-02-09T08:19:31Z</time>
      </trkpt>
      <trkpt lat="58.6690052692" lon="16.0433071665">
        <ele>104.92</ele>
        <time>2013-02-09T08:19:44Z</time>
      </trkpt>
      <trkpt lat="58.6688925326" lon="16.0430321563">
        <ele>103</ele>
        <time>2013-02-09T08:19:50Z</time>
      </trkpt>
      <trkpt lat="58.6687817238" lon="16.0426435713">
        <ele>103.48</ele>
        <time>2013-02-09T08:20:02Z</time>
      </trkpt>
      <trkpt lat="58.6687663011" lon="16.0426056013">
        <ele>103.96</ele>
        <time>2013-02-09T08:20:05Z</time>
      </trkpt>
      <trkpt lat="58.668702431" lon="16.0424847342">
        <ele>103.48</ele>
        <time>2013-02-09T08:20:11Z</time>
      </trkpt>
      <trkpt lat="58.6685706675" lon="16.0422103945">
        <ele>102.04</ele>
        <time>2013-02-09T08:20:22Z</time>
      </trkpt>
      <trkpt lat="58.6684012692" lon="16.0418115836">
        <ele>101.56</ele>
        <time>2013-02-09T08:20:35Z</time>
      </trkpt>
      <trkpt lat="58.6681539193" lon="16.0415550973">
        <ele>99.63</ele>
        <time>2013-02-09T08:20:47Z</time>
      </trkpt>
      <trkpt lat="58.6681063101" lon="16.0414659977">
        <ele>99.63</ele>
        <time>2013-02-09T08:20:51Z</time>
      </trkpt>
      <trkpt lat="58.6679868679" lon="16.0410961881">
        <ele>97.23</ele>
        <time>2013-02-09T08:21:02Z</time>
      </trkpt>
      <trkpt lat="58.6679451261" lon="16.0407841299">
        <ele>97.23</ele>
        <time>2013-02-09T08:21:12Z</time>
      </trkpt>
      <trkpt lat="58.6678360775" lon="16.0407393705">
        <ele>97.23</ele>
        <time>2013-02-09T08:21:22Z</time>
      </trkpt>
      <trkpt lat="58.6678017117" lon="16.0406274721">
        <ele>97.23</ele>
        <time>2013-02-09T08:21:26Z</time>
      </trkpt>
      <trkpt lat="58.667750163" lon="16.0402688943">
        <ele>96.75</ele>
        <time>2013-02-09T08:21:39Z</time>
      </trkpt>
      <trkpt lat="58.6676262785" lon="16.0397225618">
        <ele>93.87</ele>
        <time>2013-02-09T08:21:51Z</time>
      </trkpt>
      <trkpt lat="58.6675284617" lon="16.039374629">
        <ele>90.5</ele>
        <time>2013-02-09T08:21:57Z</time>
      </trkpt>
      <trkpt lat="58.6674536113" lon="16.0389955994">
        <ele>86.66</ele>
        <time>2013-02-09T08:22:02Z</time>
      </trkpt>
      <trkpt lat="58.6673780903" lon="16.0388066713">
        <ele>83.29</ele>
        <time>2013-02-09T08:22:05Z</time>
      </trkpt>
      <trkpt lat="58.6672910862" lon="16.0386822">
        <ele>81.85</ele>
        <time>2013-02-09T08:22:08Z</time>
      </trkpt>
      <trkpt lat="58.6671002302" lon="16.0386825353">
        <ele>78</ele>
        <time>2013-02-09T08:22:12Z</time>
      </trkpt>
      <trkpt lat="58.6670291517" lon="16.0387469921">
        <ele>78</ele>
        <time>2013-02-09T08:22:18Z</time>
      </trkpt>
      <trkpt lat="58.6670459155" lon="16.0387202539">
        <ele>78</ele>
        <time>2013-02-09T08:22:26Z</time>
      </trkpt>
      <trkpt lat="58.667107271" lon="16.0386101156">
        <ele>78</ele>
        <time>2013-02-09T08:22:33Z</time>
      </trkpt>
      <trkpt lat="58.6671148986" lon="16.03848028">
        <ele>76.56</ele>
        <time>2013-02-09T08:22:38Z</time>
      </trkpt>
      <trkpt lat="58.6669806205" lon="16.0381456744">
        <ele>76.08</ele>
        <time>2013-02-09T08:22:51Z</time>
      </trkpt>
      <trkpt lat="58.6669914331" lon="16.0381490272">
        <ele>76.56</ele>
        <time>2013-02-09T08:23:11Z</time>
      </trkpt>
      <trkpt lat="58.6669679638" lon="16.0381783638">
        <ele>77.04</ele>
        <time>2013-02-09T08:23:31Z</time>
      </trkpt>
      <trkpt lat="58.6669351906" lon="16.0380142462">
        <ele>77.04</ele>
        <time>2013-02-09T08:23:50Z</time>
      </trkpt>
      <trkpt lat="58.6668482702" lon="16.0376735218">
        <ele>77.04</ele>
        <time>2013-02-09T08:24:04Z</time>
      </trkpt>
      <trkpt lat="58.6667210329" lon="16.0375055484">
        <ele>77.04</ele>
        <time>2013-02-09T08:24:13Z</time>
      </trkpt>
      <trkpt lat="58.6667428259" lon="16.0371322185">
        <ele>78</ele>
        <time>2013-02-09T08:24:29Z</time>
      </trkpt>
      <trkpt lat="58.6667574942" lon="16.0370711982">
        <ele>78.97</ele>
        <time>2013-02-09T08:24:32Z</time>
      </trkpt>
      <trkpt lat="58.666861346" lon="16.0366941802">
        <ele>81.85</ele>
        <time>2013-02-09T08:24:50Z</time>
      </trkpt>
      <trkpt lat="58.6669561453" lon="16.0363791883">
        <ele>83.29</ele>
        <time>2013-02-09T08:25:06Z</time>
      </trkpt>
      <trkpt lat="58.6670425627" lon="16.0360072833">
        <ele>84.73</ele>
        <time>2013-02-09T08:25:22Z</time>
      </trkpt>
      <trkpt lat="58.6670282297" lon="16.0356135853">
        <ele>85.21</ele>
        <time>2013-02-09T08:25:38Z</time>
      </trkpt>
      <trkpt lat="58.6669973005" lon="16.0351498984">
        <ele>85.69</ele>
        <time>2013-02-09T08:25:53Z</time>
      </trkpt>
      <trkpt lat="58.6669579893" lon="16.0346900672">
        <ele>85.69</ele>
        <time>2013-02-09T08:26:07Z</time>
      </trkpt>
      <trkpt lat="58.6668524612" lon="16.0342083592">
        <ele>86.18</ele>
        <time>2013-02-09T08:26:24Z</time>
      </trkpt>
      <trkpt lat="58.6666771956" lon="16.0338827223">
        <ele>86.66</ele>
        <time>2013-02-09T08:26:40Z</time>
      </trkpt>
      <trkpt lat="58.6663773749" lon="16.033826815">
        <ele>83.77</ele>
        <time>2013-02-09T08:26:56Z</time>
      </trkpt>
      <trkpt lat="58.6660896242" lon="16.0336875077">
        <ele>82.81</ele>
        <time>2013-02-09T08:27:11Z</time>
      </trkpt>
      <trkpt lat="58.6657359079" lon="16.0335193668">
        <ele>80.41</ele>
        <time>2013-02-09T08:27:28Z</time>
      </trkpt>
      <trkpt lat="58.6654417869" lon="16.033539148">
        <ele>79.45</ele>
        <time>2013-02-09T08:27:43Z</time>
      </trkpt>
      <trkpt lat="58.6651136354" lon="16.0336658824">
        <ele>78.48</ele>
        <time>2013-02-09T08:28:01Z</time>
      </trkpt>
      <trkpt lat="58.6649100389" lon="16.0337863304">
        <ele>79.93</ele>
        <time>2013-02-09T08:28:17Z</time>
      </trkpt>
      <trkpt lat="58.6646915227" lon="16.0339082032">
        <ele>80.41</ele>
        <time>2013-02-09T08:28:33Z</time>
      </trkpt>
      <trkpt lat="58.6644912791" lon="16.034025969">
        <ele>81.85</ele>
        <time>2013-02-09T08:28:49Z</time>
      </trkpt>
      <trkpt lat="58.6642918736" lon="16.0341852251">
        <ele>83.29</ele>
        <time>2013-02-09T08:29:05Z</time>
      </trkpt>
      <trkpt lat="58.6640330404" lon="16.0343442298">
        <ele>83.77</ele>
        <time>2013-02-09T08:29:24Z</time>
      </trkpt>
      <trkpt lat="58.663761802" lon="16.0345244408">
        <ele>83.29</ele>
        <time>2013-02-09T08:29:41Z</time>
      </trkpt>
      <trkpt lat="58.6635049805" lon="16.0348008759">
        <ele>82.81</ele>
        <time>2013-02-09T08:29:57Z</time>
      </trkpt>
      <trkpt lat="58.663266683" lon="16.0350287799">
        <ele>82.33</ele>
        <time>2013-02-09T08:30:13Z</time>
      </trkpt>
      <trkpt lat="58.6630376056" lon="16.0350526683">
        <ele>83.29</ele>
        <time>2013-02-09T08:30:28Z</time>
      </trkpt>
      <trkpt lat="58.663006844" lon="16.0350530036">
        <ele>83.29</ele>
        <time>2013-02-09T08:30:30Z</time>
      </trkpt>
      <trkpt lat="58.6627096217" lon="16.0350454599">
        <ele>83.29</ele>
        <time>2013-02-09T08:30:46Z</time>
      </trkpt>
      <trkpt lat="58.6625066958" lon="16.034899028">
        <ele>83.29</ele>
        <time>2013-02-09T08:30:59Z</time>
      </trkpt>
      <trkpt lat="58.6623195279" lon="16.034620665">
        <ele>83.29</ele>
        <time>2013-02-09T08:31:14Z</time>
      </trkpt>
      <trkpt lat="58.6623085476" lon="16.0343345907">
        <ele>83.77</ele>
        <time>2013-02-09T08:31:24Z</time>
      </trkpt>
      <trkpt lat="58.6623474397" lon="16.0340853967">
        <ele>84.25</ele>
        <time>2013-02-09T08:31:33Z</time>
      </trkpt>
      <trkpt lat="58.6624372937" lon="16.0336496215">
        <ele>86.18</ele>
        <time>2013-02-09T08:31:51Z</time>
      </trkpt>
      <trkpt lat="58.6625413131" lon="16.0333140939">
        <ele>86.18</ele>
        <time>2013-02-09T08:32:06Z</time>
      </trkpt>
      <trkpt lat="58.662627982" lon="16.0329919774">
        <ele>88.1</ele>
        <time>2013-02-09T08:32:20Z</time>
      </trkpt>
      <trkpt lat="58.6626159959" lon="16.0326546058">
        <ele>88.58</ele>
        <time>2013-02-09T08:32:35Z</time>
      </trkpt>
      <trkpt lat="58.6625697277" lon="16.0323635023">
        <ele>91.46</ele>
        <time>2013-02-09T08:32:51Z</time>
      </trkpt>
      <trkpt lat="58.6625286564" lon="16.0320746619">
        <ele>94.35</ele>
        <time>2013-02-09T08:33:06Z</time>
      </trkpt>
      <trkpt lat="58.6625112221" lon="16.0317719914">
        <ele>95.79</ele>
        <time>2013-02-09T08:33:21Z</time>
      </trkpt>
      <trkpt lat="58.6625619326" lon="16.0314238071">
        <ele>96.75</ele>
        <time>2013-02-09T08:33:36Z</time>
      </trkpt>
      <trkpt lat="58.6626357771" lon="16.0310337134">
        <ele>98.19</ele>
        <time>2013-02-09T08:33:53Z</time>
      </trkpt>
      <trkpt lat="58.6626542173" lon="16.0307177156">
        <ele>98.67</ele>
        <time>2013-02-09T08:34:09Z</time>
      </trkpt>
      <trkpt lat="58.6625488568" lon="16.0306446254">
        <ele>99.15</ele>
        <time>2013-02-09T08:34:26Z</time>
      </trkpt>
      <trkpt lat="58.6624102201" lon="16.0303787515">
        <ele>98.67</ele>
        <time>2013-02-09T08:34:38Z</time>
      </trkpt>
      <trkpt lat="58.662410304" lon="16.0302500054">
        <ele>98.67</ele>
        <time>2013-02-09T08:34:43Z</time>
      </trkpt>
      <trkpt lat="58.66245565" lon="16.0299814492">
        <ele>99.15</ele>
        <time>2013-02-09T08:34:53Z</time>
      </trkpt>
      <trkpt lat="58.662491776" lon="16.0296077002">
        <ele>99.63</ele>
        <time>2013-02-09T08:35:08Z</time>
      </trkpt>
      <trkpt lat="58.6625009123" lon="16.0294309258">
        <ele>100.11</ele>
        <time>2013-02-09T08:35:15Z</time>
      </trkpt>
      <trkpt lat="58.6624900158" lon="16.0292430874">
        <ele>100.6</ele>
        <time>2013-02-09T08:35:23Z</time>
      </trkpt>
      <trkpt lat="58.6624780297" lon="16.0291224718">
        <ele>101.56</ele>
        <time>2013-02-09T08:35:30Z</time>
      </trkpt>
      <trkpt lat="58.6624206137" lon="16.0289344657">
        <ele>102.04</ele>
        <time>2013-02-09T08:35:44Z</time>
      </trkpt>
      <trkpt lat="58.6623798776" lon="16.0288427677">
        <ele>103.96</ele>
        <time>2013-02-09T08:35:55Z</time>
      </trkpt>
      <trkpt lat="58.662334783" lon="16.0287737008">
        <ele>104.44</ele>
        <time>2013-02-09T08:36:07Z</time>
      </trkpt>
      <trkpt lat="58.6623047758" lon="16.0286939889">
        <ele>105.88</ele>
        <time>2013-02-09T08:36:20Z</time>
      </trkpt>
      <trkpt lat="58.6622703262" lon="16.0286420211">
        <ele>106.84</ele>
        <time>2013-02-09T08:36:35Z</time>
      </trkpt>
      <trkpt lat="58.6622372176" lon="16.0286001116">
        <ele>107.81</ele>
        <time>2013-02-09T08:36:48Z</time>
      </trkpt>
      <trkpt lat="58.6621933803" lon="16.0285659973">
        <ele>109.25</ele>
        <time>2013-02-09T08:37:02Z</time>
      </trkpt>
      <trkpt lat="58.6621563323" lon="16.0285512451">
        <ele>110.21</ele>
        <time>2013-02-09T08:37:08Z</time>
      </trkpt>
      <trkpt lat="58.6620926298" lon="16.0285214894">
        <ele>111.65</ele>
        <time>2013-02-09T08:37:22Z</time>
      </trkpt>
      <trkpt lat="58.6620578449" lon="16.0285309609">
        <ele>112.61</ele>
        <time>2013-02-09T08:37:35Z</time>
      </trkpt>
      <trkpt lat="58.6620088946" lon="16.0285669193">
        <ele>114.53</ele>
        <time>2013-02-09T08:37:47Z</time>
      </trkpt>
      <trkpt lat="58.661916526" lon="16.0285001155">
        <ele>115.5</ele>
        <time>2013-02-09T08:37:56Z</time>
      </trkpt>
      <trkpt lat="58.6617617123" lon="16.0281997919">
        <ele>115.5</ele>
        <time>2013-02-09T08:38:12Z</time>
      </trkpt>
      <trkpt lat="58.6617545877" lon="16.0281625763">
        <ele>115.98</ele>
        <time>2013-02-09T08:38:14Z</time>
      </trkpt>
      <trkpt lat="58.6617938988" lon="16.0275863204">
        <ele>115.98</ele>
        <time>2013-02-09T08:38:29Z</time>
      </trkpt>
      <trkpt lat="58.6619610339" lon="16.0270044487">
        <ele>115.5</ele>
        <time>2013-02-09T08:38:44Z</time>
      </trkpt>
      <trkpt lat="58.662154153" lon="16.0266388301">
        <ele>115.98</ele>
        <time>2013-02-09T08:38:58Z</time>
      </trkpt>
      <trkpt lat="58.6624804605" lon="16.0262955911">
        <ele>112.61</ele>
        <time>2013-02-09T08:39:11Z</time>
      </trkpt>
      <trkpt lat="58.6627167463" lon="16.0257788468">
        <ele>108.77</ele>
        <time>2013-02-09T08:39:21Z</time>
      </trkpt>
      <trkpt lat="58.6627387907" lon="16.0257143062">
        <ele>108.77</ele>
        <time>2013-02-09T08:39:22Z</time>
      </trkpt>
      <trkpt lat="58.6627838854" lon="16.0251189396">
        <ele>106.84</ele>
        <time>2013-02-09T08:39:33Z</time>
      </trkpt>
      <trkpt lat="58.6627622601" lon="16.0244918894">
        <ele>106.84</ele>
        <time>2013-02-09T08:39:49Z</time>
      </trkpt>
      <trkpt lat="58.6627251282" lon="16.0238041542">
        <ele>106.36</ele>
        <time>2013-02-09T08:40:05Z</time>
      </trkpt>
      <trkpt lat="58.6626839731" lon="16.0231877491">
        <ele>106.36</ele>
        <time>2013-02-09T08:40:20Z</time>
      </trkpt>
      <trkpt lat="58.6626584921" lon="16.0225369781">
        <ele>106.36</ele>
        <time>2013-02-09T08:40:37Z</time>
      </trkpt>
      <trkpt lat="58.6625466775" lon="16.0221279413">
        <ele>106.84</ele>
        <time>2013-02-09T08:40:52Z</time>
      </trkpt>
      <trkpt lat="58.6623983178" lon="16.0217997059">
        <ele>108.77</ele>
        <time>2013-02-09T08:41:09Z</time>
      </trkpt>
      <trkpt lat="58.6622872576" lon="16.0212469194">
        <ele>109.25</ele>
        <time>2013-02-09T08:41:26Z</time>
      </trkpt>
      <trkpt lat="58.6622074619" lon="16.0206524748">
        <ele>108.29</ele>
        <time>2013-02-09T08:41:42Z</time>
      </trkpt>
      <trkpt lat="58.6621937994" lon="16.0202196334">
        <ele>109.25</ele>
        <time>2013-02-09T08:41:56Z</time>
      </trkpt>
      <trkpt lat="58.6621191166" lon="16.0198604688">
        <ele>110.21</ele>
        <time>2013-02-09T08:42:09Z</time>
      </trkpt>
      <trkpt lat="58.6619758699" lon="16.0194371827">
        <ele>110.69</ele>
        <time>2013-02-09T08:42:25Z</time>
      </trkpt>
      <trkpt lat="58.6618805677" lon="16.0190463345">
        <ele>111.17</ele>
        <time>2013-02-09T08:42:39Z</time>
      </trkpt>
      <trkpt lat="58.6617661547" lon="16.0187139921">
        <ele>112.13</ele>
        <time>2013-02-09T08:42:54Z</time>
      </trkpt>
      <trkpt lat="58.6615954991" lon="16.0186698195">
        <ele>113.09</ele>
        <time>2013-02-09T08:43:10Z</time>
      </trkpt>
      <trkpt lat="58.6615893804" lon="16.0186583363">
        <ele>112.61</ele>
        <time>2013-02-09T08:43:11Z</time>
      </trkpt>
      <trkpt lat="58.6614685133" lon="16.0181896202">
        <ele>111.65</ele>
        <time>2013-02-09T08:43:26Z</time>
      </trkpt>
      <trkpt lat="58.6613844428" lon="16.0177817568">
        <ele>112.13</ele>
        <time>2013-02-09T08:43:41Z</time>
      </trkpt>
      <trkpt lat="58.6612589657" lon="16.0173701216">
        <ele>111.65</ele>
        <time>2013-02-09T08:43:55Z</time>
      </trkpt>
      <trkpt lat="58.6611189879" lon="16.0167711508">
        <ele>109.73</ele>
        <time>2013-02-09T08:44:10Z</time>
      </trkpt>
      <trkpt lat="58.6611997057" lon="16.0163255688">
        <ele>109.25</ele>
        <time>2013-02-09T08:44:24Z</time>
      </trkpt>
      <trkpt lat="58.6612349097" lon="16.0161567573">
        <ele>108.77</ele>
        <time>2013-02-09T08:44:30Z</time>
      </trkpt>
      <trkpt lat="58.6611904018" lon="16.0160027817">
        <ele>108.29</ele>
        <time>2013-02-09T08:44:35Z</time>
      </trkpt>
      <trkpt lat="58.6609409563" lon="16.0157115106">
        <ele>107.32</ele>
        <time>2013-02-09T08:44:52Z</time>
      </trkpt>
      <trkpt lat="58.6607582308" lon="16.0155168828">
        <ele>105.4</ele>
        <time>2013-02-09T08:45:03Z</time>
      </trkpt>
      <trkpt lat="58.660823945" lon="16.0152021423">
        <ele>105.88</ele>
        <time>2013-02-09T08:45:12Z</time>
      </trkpt>
      <trkpt lat="58.6609785911" lon="16.0145974718">
        <ele>102.04</ele>
        <time>2013-02-09T08:45:29Z</time>
      </trkpt>
      <trkpt lat="58.6610821914" lon="16.0141786281">
        <ele>102.52</ele>
        <time>2013-02-09T08:45:44Z</time>
      </trkpt>
      <trkpt lat="58.6611909047" lon="16.0137472954">
        <ele>102.52</ele>
        <time>2013-02-09T08:46:00Z</time>
      </trkpt>
      <trkpt lat="58.6612442974" lon="16.0132023878">
        <ele>99.15</ele>
        <time>2013-02-09T08:46:16Z</time>
      </trkpt>
      <trkpt lat="58.6612950079" lon="16.0126949474">
        <ele>95.79</ele>
        <time>2013-02-09T08:46:27Z</time>
      </trkpt>
      <trkpt lat="58.6614710279" lon="16.0123199411">
        <ele>92.42</ele>
        <time>2013-02-09T08:46:36Z</time>
      </trkpt>
      <trkpt lat="58.6616649013" lon="16.0120427515">
        <ele>89.06</ele>
        <time>2013-02-09T08:46:44Z</time>
      </trkpt>
      <trkpt lat="58.6618439388" lon="16.0118166916">
        <ele>86.66</ele>
        <time>2013-02-09T08:46:51Z</time>
      </trkpt>
      <trkpt lat="58.661800269" lon="16.0115420166">
        <ele>84.25</ele>
        <time>2013-02-09T08:46:56Z</time>
      </trkpt>
      <trkpt lat="58.6616466288" lon="16.0111122765">
        <ele>82.81</ele>
        <time>2013-02-09T08:47:09Z</time>
      </trkpt>
      <trkpt lat="58.6614799127" lon="16.0106787644">
        <ele>81.37</ele>
        <time>2013-02-09T08:47:24Z</time>
      </trkpt>
      <trkpt lat="58.6613224167" lon="16.0102702305">
        <ele>81.37</ele>
        <time>2013-02-09T08:47:38Z</time>
      </trkpt>
      <trkpt lat="58.6611973587" lon="16.0099015944">
        <ele>81.37</ele>
        <time>2013-02-09T08:47:52Z</time>
      </trkpt>
      <trkpt lat="58.6610771623" lon="16.0094889533">
        <ele>81.37</ele>
        <time>2013-02-09T08:48:08Z</time>
      </trkpt>
      <trkpt lat="58.6610742286" lon="16.0094353929">
        <ele>81.37</ele>
        <time>2013-02-09T08:48:10Z</time>
      </trkpt>
      <trkpt lat="58.6611228436" lon="16.0092260968">
        <ele>81.37</ele>
        <time>2013-02-09T08:48:17Z</time>
      </trkpt>
      <trkpt lat="58.6612047348" lon="16.0089519247">
        <ele>81.37</ele>
        <time>2013-02-09T08:48:26Z</time>
      </trkpt>
      <trkpt lat="58.6612896435" lon="16.0084568057">
        <ele>80.41</ele>
        <time>2013-02-09T08:48:43Z</time>
      </trkpt>
      <trkpt lat="58.6614128575" lon="16.0079706553">
        <ele>80.89</ele>
        <time>2013-02-09T08:49:00Z</time>
      </trkpt>
      <trkpt lat="58.6615119316" lon="16.0074718483">
        <ele>80.41</ele>
        <time>2013-02-09T08:49:16Z</time>
      </trkpt>
      <trkpt lat="58.6616431084" lon="16.0069234204">
        <ele>79.45</ele>
        <time>2013-02-09T08:49:35Z</time>
      </trkpt>
      <trkpt lat="58.6616763845" lon="16.0067669302">
        <ele>79.45</ele>
        <time>2013-02-09T08:49:40Z</time>
      </trkpt>
      <trkpt lat="58.6617084034" lon="16.0067323968">
        <ele>79.93</ele>
        <time>2013-02-09T08:49:44Z</time>
      </trkpt>
      <trkpt lat="58.6616962496" lon="16.0071416851">
        <ele>79.93</ele>
        <time>2013-02-09T08:49:59Z</time>
      </trkpt>
      <trkpt lat="58.6616888735" lon="16.007116707">
        <ele>79.45</ele>
        <time>2013-02-09T08:50:05Z</time>
      </trkpt>
      <trkpt lat="58.6616861913" lon="16.0070056468">
        <ele>79.45</ele>
        <time>2013-02-09T08:50:09Z</time>
      </trkpt>
      <trkpt lat="58.661765568" lon="16.0064169019">
        <ele>79.93</ele>
        <time>2013-02-09T08:50:29Z</time>
      </trkpt>
      <trkpt lat="58.6618052144" lon="16.0061338451">
        <ele>79.93</ele>
        <time>2013-02-09T08:50:38Z</time>
      </trkpt>
      <trkpt lat="58.6617594492" lon="16.0059666261">
        <ele>79.45</ele>
        <time>2013-02-09T08:50:47Z</time>
      </trkpt>
      <trkpt lat="58.6616773065" lon="16.005947683">
        <ele>80.41</ele>
        <time>2013-02-09T08:51:03Z</time>
      </trkpt>
    </trkseg>
  </trk>
</gpx>